Time;durP1;ratioP1;P1;durP2;ratioP2;P2;SDS_P1;SDS_P2;PMS_P1;PMS_P2;Temp;Humidity;BMP_temperature;BMP_pressure;BME280_temperature;BME280_humidity;BME280_pressure;Samples;Min_cycle;Max_cycle;Signal;HPM_P1;HPM_P2
2021/12/28 00:01:14;;;;;;;;;;;8.80;99.90;;;;;;8394873;28;19929;-69
2021/12/28 00:05:17;;;;;;;;;;;8.80;99.90;;;;;;8385622;28;20026;-69
2021/12/28 00:09:18;;;;;;;;;;;8.70;99.90;;;;;;8383627;28;19975;-70
2021/12/28 00:13:20;;;;;;;;;;;8.70;99.90;;;;;;8385025;28;19948;-69
2021/12/28 00:21:42;;;;;;;;;;;8.70;99.90;;;;;;8385941;28;20313;-70
2021/12/28 00:25:45;;;;;;;;;;;8.70;99.90;;;;;;8389714;28;19929;-70
2021/12/28 00:29:47;;;;;;;;;;;8.60;99.90;;;;;;8390634;28;19976;-70
2021/12/28 00:33:49;;;;;;;;;;;8.50;99.90;;;;;;8387537;28;19928;-70
2021/12/28 00:37:51;;;;;;;;;;;8.50;99.90;;;;;;8392740;28;19925;-69
2021/12/28 00:41:52;;;;;;;;;;;8.40;99.90;;;;;;8381621;28;19935;-69
2021/12/28 00:45:54;;;;;;;;;;;8.40;99.90;;;;;;8392929;28;19925;-70
2021/12/28 00:49:56;;;;;;;;;;;8.30;99.90;;;;;;8369535;28;19943;-69
2021/12/28 00:53:58;;;;;;;;;;;8.30;99.90;;;;;;8389930;28;19947;-69
2021/12/28 00:57:59;;;;;;;;;;;8.20;99.90;;;;;;8387837;28;19963;-70
2021/12/28 01:02:01;;;;;;;;;;;8.20;99.90;;;;;;8389598;28;20432;-70
2021/12/28 01:06:03;;;;;;;;;;;8.20;99.90;;;;;;8381388;28;20279;-69
2021/12/28 01:10:07;;;;;;;;;;;8.20;99.90;;;;;;8383842;28;19939;-69
2021/12/28 01:14:09;;;;;;;;;;;8.10;99.90;;;;;;8381593;28;19932;-70
2021/12/28 01:18:12;;;;;;;;;;;8.20;99.90;;;;;;8389072;28;19924;-70
2021/12/28 01:22:14;;;;;;;;;;;8.20;99.90;;;;;;8387915;28;19956;-70
2021/12/28 01:26:15;;;;;;;;;;;8.20;99.90;;;;;;8383687;28;19932;-69
2021/12/28 01:30:19;;;;;;;;;;;8.20;99.90;;;;;;8387854;28;19926;-69
2021/12/28 01:34:21;;;;;;;;;;;8.20;99.90;;;;;;8388120;28;19924;-69
2021/12/28 01:38:22;;;;;;;;;;;8.20;99.90;;;;;;8380830;28;19933;-70
2021/12/28 01:42:24;;;;;;;;;;;8.30;99.90;;;;;;8377273;28;19968;-70
2021/12/28 01:46:26;;;;;;;;;;;8.30;99.90;;;;;;8381444;28;19931;-69
2021/12/28 01:50:28;;;;;;;;;;;8.20;99.90;;;;;;8383208;28;19931;-69
2021/12/28 01:54:29;;;;;;;;;;;8.20;99.90;;;;;;8380029;28;19932;-70
2021/12/28 01:58:31;;;;;;;;;;;8.20;99.90;;;;;;8386767;28;19972;-70
2021/12/28 02:02:32;;;;;;;;;;;8.10;99.90;;;;;;8392017;28;20265;-69
2021/12/28 02:06:34;;;;;;;;;;;8.10;99.90;;;;;;8384236;28;19973;-70
2021/12/28 02:10:36;;;;;;;;;;;8.10;99.90;;;;;;8365775;28;20411;-70
2021/12/28 02:14:43;;;;;;;;;;;8.00;99.90;;;;;;8400152;28;19959;-70
2021/12/28 02:18:45;;;;;;;;;;;8.00;99.90;;;;;;8366585;28;19924;-69
2021/12/28 02:22:47;;;;;;;;;;;8.00;99.90;;;;;;8368662;28;20321;-69
2021/12/28 02:26:49;;;;;;;;;;;8.00;99.90;;;;;;8365872;28;19924;-69
2021/12/28 02:30:52;;;;;;;;;;;8.00;99.90;;;;;;8361951;28;19925;-70
2021/12/28 02:34:54;;;;;;;;;;;8.00;99.90;;;;;;8379947;28;20001;-69
2021/12/28 02:38:56;;;;;;;;;;;8.10;99.90;;;;;;8387674;28;19982;-69
2021/12/28 02:42:58;;;;;;;;;;;8.10;99.90;;;;;;8397045;28;19959;-70
2021/12/28 02:47:00;;;;;;;;;;;8.10;99.90;;;;;;8390653;28;19936;-70
2021/12/28 02:51:04;;;;;;;;;;;8.10;99.90;;;;;;8389083;28;19925;-69
2021/12/28 02:55:08;;;;;;;;;;;8.20;99.90;;;;;;8382172;28;20328;-70
2021/12/28 02:59:09;;;;;;;;;;;8.10;99.90;;;;;;8396188;28;20367;-70
2021/12/28 03:03:13;;;;;;;;;;;8.20;99.90;;;;;;8380419;28;19935;-69
2021/12/28 03:07:14;;;;;;;;;;;8.20;99.90;;;;;;8385582;28;20387;-69
2021/12/28 03:11:16;;;;;;;;;;;8.20;99.90;;;;;;8389410;28;19976;-70
2021/12/28 03:15:18;;;;;;;;;;;8.30;99.90;;;;;;8387345;28;20393;-69
2021/12/28 03:19:20;;;;;;;;;;;8.30;99.90;;;;;;8375214;28;19947;-70
2021/12/28 03:23:22;;;;;;;;;;;8.30;99.90;;;;;;8371929;28;19952;-70
2021/12/28 03:27:24;;;;;;;;;;;8.30;99.90;;;;;;8366377;28;20372;-70
2021/12/28 03:31:26;;;;;;;;;;;8.30;99.90;;;;;;8393114;28;20010;-70
2021/12/28 03:35:27;;;;;;;;;;;8.30;99.90;;;;;;8391240;28;19929;-69
2021/12/28 03:39:29;;;;;;;;;;;8.30;99.90;;;;;;8394008;28;20057;-70
2021/12/28 03:43:31;;;;;;;;;;;8.40;99.90;;;;;;8387090;28;20368;-70
2021/12/28 03:47:32;;;;;;;;;;;8.40;99.90;;;;;;8369813;28;20255;-70
2021/12/28 03:51:34;;;;;;;;;;;8.40;99.90;;;;;;8399944;28;19924;-70
2021/12/28 03:55:36;;;;;;;;;;;8.40;99.90;;;;;;8388273;28;19925;-70
2021/12/28 03:59:38;;;;;;;;;;;8.40;99.90;;;;;;8392647;28;20287;-69
2021/12/28 04:03:39;;;;;;;;;;;8.50;99.90;;;;;;8387390;28;19924;-70
2021/12/28 04:07:41;;;;;;;;;;;8.40;99.90;;;;;;8392760;28;19924;-69
2021/12/28 04:11:43;;;;;;;;;;;8.50;99.90;;;;;;8392299;28;19924;-69
2021/12/28 04:15:45;;;;;;;;;;;8.50;99.90;;;;;;8396103;28;20241;-70
2021/12/28 04:19:47;;;;;;;;;;;8.40;99.90;;;;;;8382106;28;19925;-70
2021/12/28 04:23:49;;;;;;;;;;;8.50;99.90;;;;;;8386102;28;19931;-70
2021/12/28 04:27:51;;;;;;;;;;;8.40;99.90;;;;;;8389213;28;19924;-70
2021/12/28 04:31:52;;;;;;;;;;;8.40;99.90;;;;;;8387501;28;19975;-69
2021/12/28 04:35:54;;;;;;;;;;;8.40;99.90;;;;;;8409470;28;19931;-70
2021/12/28 04:39:56;;;;;;;;;;;8.40;99.90;;;;;;8387871;28;19924;-69
2021/12/28 04:44:00;;;;;;;;;;;8.40;99.90;;;;;;8385174;28;19936;-70
2021/12/28 04:48:03;;;;;;;;;;;8.40;99.90;;;;;;8379670;28;19932;-69
2021/12/28 04:52:05;;;;;;;;;;;8.50;99.90;;;;;;8386894;28;20297;-69
2021/12/28 04:56:07;;;;;;;;;;;8.40;99.90;;;;;;8371248;28;19932;-69
2021/12/28 05:00:11;;;;;;;;;;;8.50;99.90;;;;;;8389208;28;19928;-69
2021/12/28 05:04:13;;;;;;;;;;;8.50;99.90;;;;;;8380040;28;20345;-69
2021/12/28 05:08:14;;;;;;;;;;;8.50;99.90;;;;;;8382473;28;19993;-70
2021/12/28 05:12:16;;;;;;;;;;;8.50;99.90;;;;;;8382487;28;19924;-70
2021/12/28 05:16:18;;;;;;;;;;;8.50;99.90;;;;;;8386579;28;19932;-69
2021/12/28 05:20:19;;;;;;;;;;;8.50;99.90;;;;;;8374937;28;20331;-70
2021/12/28 05:24:21;;;;;;;;;;;8.50;99.90;;;;;;8385037;28;19924;-69
2021/12/28 05:28:22;;;;;;;;;;;8.60;99.90;;;;;;8363092;28;19929;-70
2021/12/28 05:32:24;;;;;;;;;;;8.50;99.90;;;;;;8386456;28;19924;-69
2021/12/28 05:36:26;;;;;;;;;;;8.50;99.90;;;;;;8363405;28;19972;-70
2021/12/28 05:40:28;;;;;;;;;;;8.50;99.90;;;;;;8377101;28;20061;-70
2021/12/28 05:44:30;;;;;;;;;;;8.60;99.90;;;;;;8359359;28;20022;-69
2021/12/28 05:48:31;;;;;;;;;;;8.60;99.90;;;;;;8382730;28;19964;-69
2021/12/28 05:52:33;;;;;;;;;;;8.60;99.90;;;;;;8375676;28;20299;-69
2021/12/28 05:56:37;;;;;;;;;;;8.70;99.90;;;;;;8369645;28;21387;-69
2021/12/28 06:00:39;;;;;;;;;;;8.70;99.90;;;;;;8379210;28;19928;-69
2021/12/28 06:04:40;;;;;;;;;;;8.70;99.90;;;;;;8382885;28;19959;-69
2021/12/28 06:08:42;;;;;;;;;;;8.70;99.90;;;;;;8366963;28;20380;-69
2021/12/28 06:12:44;;;;;;;;;;;8.80;99.90;;;;;;8383894;28;19987;-69
2021/12/28 06:16:46;;;;;;;;;;;8.80;99.90;;;;;;8393134;28;19936;-69
2021/12/28 06:20:47;;;;;;;;;;;8.80;99.90;;;;;;8399126;28;19929;-69
2021/12/28 06:24:49;;;;;;;;;;;8.80;99.90;;;;;;8376934;28;19995;-69
2021/12/28 06:28:51;;;;;;;;;;;8.90;99.90;;;;;;8392841;28;20296;-70
2021/12/28 06:32:52;;;;;;;;;;;8.90;99.90;;;;;;8357392;28;20013;-71
2021/12/28 06:36:54;;;;;;;;;;;8.90;99.90;;;;;;8395926;28;19991;-69
2021/12/28 06:40:56;;;;;;;;;;;8.90;99.90;;;;;;8380640;28;19983;-70
2021/12/28 06:44:58;;;;;;;;;;;9.00;99.90;;;;;;8387009;28;19924;-69
2021/12/28 06:48:59;;;;;;;;;;;9.00;99.90;;;;;;8385822;28;19936;-69
2021/12/28 06:53:01;;;;;;;;;;;9.00;99.90;;;;;;8367485;28;19943;-69
2021/12/28 06:57:04;;;;;;;;;;;9.10;99.90;;;;;;8379570;28;19932;-69
2021/12/28 07:01:06;;;;;;;;;;;9.10;99.90;;;;;;8395401;28;19975;-69
2021/12/28 07:05:08;;;;;;;;;;;9.10;99.90;;;;;;8363670;28;19928;-70
2021/12/28 07:09:10;;;;;;;;;;;9.10;99.90;;;;;;8389135;28;20276;-69
2021/12/28 07:13:11;;;;;;;;;;;9.20;99.90;;;;;;8370848;28;19924;-70
2021/12/28 07:17:13;;;;;;;;;;;9.20;99.90;;;;;;8392920;28;19968;-69
2021/12/28 07:21:15;;;;;;;;;;;9.20;99.90;;;;;;8384570;28;19932;-70
2021/12/28 07:25:17;;;;;;;;;;;9.20;99.90;;;;;;8382711;28;20407;-69
2021/12/28 07:29:18;;;;;;;;;;;9.20;99.90;;;;;;8389275;28;19929;-69
2021/12/28 07:33:21;;;;;;;;;;;9.20;99.90;;;;;;8374157;28;19932;-69
2021/12/28 07:37:22;;;;;;;;;;;9.30;99.90;;;;;;8374309;28;19936;-70
2021/12/28 07:41:24;;;;;;;;;;;9.30;99.90;;;;;;8356329;28;19928;-70
2021/12/28 07:45:26;;;;;;;;;;;9.30;99.90;;;;;;8378026;28;20375;-69
2021/12/28 07:49:27;;;;;;;;;;;9.30;99.90;;;;;;8385880;28;19931;-70
2021/12/28 07:53:29;;;;;;;;;;;9.30;99.90;;;;;;8375161;28;20058;-70
2021/12/28 07:57:31;;;;;;;;;;;9.30;99.90;;;;;;8380820;28;19951;-70
2021/12/28 08:01:33;;;;;;;;;;;9.30;99.90;;;;;;8379302;28;20372;-69
2021/12/28 08:05:36;;;;;;;;;;;9.20;99.90;;;;;;8380685;28;19971;-69
2021/12/28 08:09:37;;;;;;;;;;;9.20;99.90;;;;;;8380332;28;19939;-69
2021/12/28 08:13:39;;;;;;;;;;;9.20;99.90;;;;;;8380291;28;19968;-69
2021/12/28 08:17:41;;;;;;;;;;;9.20;99.90;;;;;;8384967;28;19975;-69
2021/12/28 08:21:42;;;;;;;;;;;9.30;99.90;;;;;;8383152;28;20071;-69
2021/12/28 08:25:44;;;;;;;;;;;9.20;99.90;;;;;;8381325;28;20400;-70
2021/12/28 08:29:45;;;;;;;;;;;9.30;99.90;;;;;;8379369;28;19982;-70
2021/12/28 08:33:47;;;;;;;;;;;9.30;99.90;;;;;;8378004;28;20026;-69
2021/12/28 08:37:49;;;;;;;;;;;9.30;99.90;;;;;;8385577;28;19931;-70
2021/12/28 08:41:50;;;;;;;;;;;9.30;99.90;;;;;;8396503;28;20248;-70
2021/12/28 08:45:52;;;;;;;;;;;9.30;99.90;;;;;;8402996;28;19974;-70
2021/12/28 08:49:54;;;;;;;;;;;9.30;99.90;;;;;;8396752;28;19985;-70
2021/12/28 08:53:57;;;;;;;;;;;9.30;99.90;;;;;;8389330;28;19928;-70
2021/12/28 08:57:59;;;;;;;;;;;9.30;99.90;;;;;;8388156;28;20385;-69
2021/12/28 09:02:01;;;;;;;;;;;9.30;99.90;;;;;;8392320;28;19936;-70
2021/12/28 09:06:02;;;;;;;;;;;9.40;99.90;;;;;;8392533;28;19928;-70
2021/12/28 09:10:05;;;;;;;;;;;9.40;99.90;;;;;;8396774;28;19976;-70
2021/12/28 09:14:06;;;;;;;;;;;9.40;99.90;;;;;;8377441;28;20459;-71
2021/12/28 09:18:08;;;;;;;;;;;9.40;99.90;;;;;;8397484;28;19924;-70
2021/12/28 09:22:10;;;;;;;;;;;9.40;99.90;;;;;;8370503;28;19929;-70
2021/12/28 09:26:12;;;;;;;;;;;9.50;99.90;;;;;;8388693;28;19970;-70
2021/12/28 09:30:14;;;;;;;;;;;9.50;99.90;;;;;;8393680;28;19924;-70
2021/12/28 09:34:16;;;;;;;;;;;9.60;99.90;;;;;;8361040;28;20046;-70
2021/12/28 09:38:29;;;;;;;;;;;9.60;99.90;;;;;;8385320;28;20278;-70
2021/12/28 09:42:31;;;;;;;;;;;9.60;99.90;;;;;;8389117;28;19971;-70
2021/12/28 09:46:33;;;;;;;;;;;9.60;99.90;;;;;;8360432;28;19928;-70
2021/12/28 09:50:35;;;;;;;;;;;9.60;99.90;;;;;;8391762;28;19971;-69
2021/12/28 09:54:37;;;;;;;;;;;9.60;99.90;;;;;;8392314;28;19940;-70
2021/12/28 09:58:39;;;;;;;;;;;9.70;99.90;;;;;;8384860;28;20018;-71
2021/12/28 10:02:40;;;;;;;;;;;9.80;99.90;;;;;;8371201;28;19963;-70
2021/12/28 10:06:43;;;;;;;;;;;9.80;99.90;;;;;;8392053;28;20406;-70
2021/12/28 10:10:46;;;;;;;;;;;9.80;99.90;;;;;;8394807;28;19964;-70
2021/12/28 10:14:52;;;;;;;;;;;9.90;99.90;;;;;;8362044;28;20288;-70
2021/12/28 10:18:54;;;;;;;;;;;9.90;99.90;;;;;;8388718;28;19924;-70
2021/12/28 10:22:58;;;;;;;;;;;10.00;99.90;;;;;;8393485;28;19928;-70
2021/12/28 10:27:17;;;;;;;;;;;10.00;99.90;;;;;;8370916;28;19932;-70
2021/12/28 10:31:22;;;;;;;;;;;10.10;99.90;;;;;;8390711;28;19979;-70
2021/12/28 10:35:29;;;;;;;;;;;10.10;99.90;;;;;;8373498;28;19983;-70
2021/12/28 10:39:46;;;;;;;;;;;10.10;99.90;;;;;;8382427;28;20340;-70
2021/12/28 10:43:50;;;;;;;;;;;10.10;99.90;;;;;;8365547;28;19982;-70
2021/12/28 10:47:52;;;;;;;;;;;10.10;99.90;;;;;;8372486;28;19928;-71
2021/12/28 10:51:54;;;;;;;;;;;10.10;99.90;;;;;;8375309;28;20395;-70
2021/12/28 10:55:57;;;;;;;;;;;10.10;99.90;;;;;;8396859;28;19935;-70
2021/12/28 11:00:18;;;;;;;;;;;10.20;99.90;;;;;;8393388;28;19928;-70
2021/12/28 11:04:20;;;;;;;;;;;10.20;99.90;;;;;;8408459;28;19986;-70
2021/12/28 11:08:24;;;;;;;;;;;10.20;99.90;;;;;;8399550;28;19933;-70
2021/12/28 11:12:41;;;;;;;;;;;10.20;99.90;;;;;;8400028;28;19931;-70
2021/12/28 11:16:54;;;;;;;;;;;10.30;99.90;;;;;;8412471;28;19932;-70
2021/12/28 11:20:57;;;;;;;;;;;10.30;99.90;;;;;;8391917;28;20022;-70
2021/12/28 11:25:01;;;;;;;;;;;10.30;99.90;;;;;;8393319;28;19932;-70
2021/12/28 11:29:07;;;;;;;;;;;10.30;99.90;;;;;;8397495;28;20430;-70
2021/12/28 11:33:09;;;;;;;;;;;10.30;99.90;;;;;;8385179;28;19928;-70
2021/12/28 11:37:20;;;;;;;;;;;10.30;99.90;;;;;;8379962;28;20395;-70
2021/12/28 11:41:21;;;;;;;;;;;10.20;99.90;;;;;;8395726;28;20375;-71
2021/12/28 11:45:23;;;;;;;;;;;10.20;99.90;;;;;;8364694;28;19928;-70
2021/12/28 11:49:28;;;;;;;;;;;10.20;99.90;;;;;;8366657;28;19954;-70
2021/12/28 11:53:30;;;;;;;;;;;10.20;99.90;;;;;;8383070;28;20007;-70
2021/12/28 11:57:31;;;;;;;;;;;10.20;99.90;;;;;;8380387;28;19995;-70
2021/12/28 12:01:37;;;;;;;;;;;10.20;99.90;;;;;;8380982;28;20020;-69
2021/12/28 12:05:43;;;;;;;;;;;10.10;99.90;;;;;;8373469;28;20002;-70
2021/12/28 12:09:52;;;;;;;;;;;10.10;99.90;;;;;;8380736;28;19982;-70
2021/12/28 12:13:53;;;;;;;;;;;10.10;99.90;;;;;;8378516;28;19932;-70
2021/12/28 12:18:00;;;;;;;;;;;10.10;99.90;;;;;;8385190;28;19928;-70
2021/12/28 12:22:21;;;;;;;;;;;10.10;99.90;;;;;;8353770;28;20382;-70
2021/12/28 12:26:32;;;;;;;;;;;10.00;99.90;;;;;;8381366;28;19963;-70
2021/12/28 12:30:34;;;;;;;;;;;9.90;99.90;;;;;;8384235;28;19987;-70
2021/12/28 12:34:37;;;;;;;;;;;9.70;99.90;;;;;;8370083;28;20258;-71
2021/12/28 12:38:38;;;;;;;;;;;9.60;99.90;;;;;;8387348;28;19985;-70
2021/12/28 12:42:40;;;;;;;;;;;9.40;99.90;;;;;;8388621;28;19979;-70
2021/12/28 12:46:44;;;;;;;;;;;9.30;99.90;;;;;;8390629;28;19932;-70
2021/12/28 12:50:45;;;;;;;;;;;9.30;99.90;;;;;;8385826;28;19975;-70
2021/12/28 12:54:51;;;;;;;;;;;9.20;99.90;;;;;;8380550;28;19936;-69
2021/12/28 12:58:54;;;;;;;;;;;9.30;99.90;;;;;;8380446;28;20380;-70
2021/12/28 13:02:59;;;;;;;;;;;9.30;99.90;;;;;;8381762;28;20039;-70
2021/12/28 13:07:03;;;;;;;;;;;9.50;99.90;;;;;;8377267;28;19932;-70
2021/12/28 13:11:04;;;;;;;;;;;10.10;99.90;;;;;;8381853;28;19972;-70
2021/12/28 13:15:08;;;;;;;;;;;10.50;99.90;;;;;;8381637;28;19971;-69
2021/12/28 13:19:11;;;;;;;;;;;11.10;99.90;;;;;;8380612;28;20343;-71
2021/12/28 13:23:13;;;;;;;;;;;11.50;99.90;;;;;;8379223;28;22055;-71
2021/12/28 13:27:17;;;;;;;;;;;11.40;99.90;;;;;;8366380;28;19983;-73
2021/12/28 13:31:22;;;;;;;;;;;11.20;99.90;;;;;;8379887;28;19928;-71
2021/12/28 13:35:25;;;;;;;;;;;10.80;99.90;;;;;;8376731;28;19924;-70
2021/12/28 13:39:26;;;;;;;;;;;10.60;99.90;;;;;;8377678;28;19995;-69
2021/12/28 13:43:31;;;;;;;;;;;10.30;99.90;;;;;;8381859;28;19945;-70
2021/12/28 13:47:35;;;;;;;;;;;10.20;99.90;;;;;;8395281;28;20300;-70
2021/12/28 13:51:36;;;;;;;;;;;10.10;99.90;;;;;;8377563;28;19974;-70
2021/12/28 13:55:43;;;;;;;;;;;10.10;99.90;;;;;;8395399;28;19978;-70
2021/12/28 13:59:45;;;;;;;;;;;10.00;99.90;;;;;;8372417;28;19928;-70
2021/12/28 14:04:04;;;;;;;;;;;9.90;99.90;;;;;;8398336;28;20374;-69
2021/12/28 14:08:05;;;;;;;;;;;9.90;99.90;;;;;;8397884;28;20402;-69
2021/12/28 14:12:09;;;;;;;;;;;9.90;99.90;;;;;;8380632;28;20015;-69
2021/12/28 14:16:11;;;;;;;;;;;9.90;99.90;;;;;;8366757;28;20499;-70
2021/12/28 14:20:12;;;;;;;;;;;10.10;99.90;;;;;;8378646;28;19936;-69
2021/12/28 14:24:14;;;;;;;;;;;10.30;99.90;;;;;;8369772;28;20012;-69
2021/12/28 14:28:24;;;;;;;;;;;10.20;99.90;;;;;;8359446;28;20023;-69
2021/12/28 14:32:34;;;;;;;;;;;10.10;99.90;;;;;;8382513;28;20245;-69
2021/12/28 14:36:37;;;;;;;;;;;10.00;99.90;;;;;;8385393;28;19986;-69
2021/12/28 14:40:40;;;;;;;;;;;9.90;99.90;;;;;;8388053;28;20106;-69
2021/12/28 14:44:44;;;;;;;;;;;9.80;99.90;;;;;;8393538;28;19975;-69
2021/12/28 14:48:45;;;;;;;;;;;9.70;99.90;;;;;;8405349;28;19931;-69
2021/12/28 14:52:51;;;;;;;;;;;9.70;99.90;;;;;;8407749;28;19928;-69
2021/12/28 14:56:57;;;;;;;;;;;9.60;99.90;;;;;;8369205;28;19935;-69
2021/12/28 15:00:59;;;;;;;;;;;9.50;99.90;;;;;;8397052;28;19925;-69
2021/12/28 15:05:03;;;;;;;;;;;9.50;99.90;;;;;;8400315;28;20408;-70
2021/12/28 15:09:04;;;;;;;;;;;9.40;99.90;;;;;;8404459;28;19982;-71
2021/12/28 15:13:07;;;;;;;;;;;9.40;99.90;;;;;;8402868;28;20004;-70
2021/12/28 15:17:09;;;;;;;;;;;9.40;99.90;;;;;;8406302;28;19970;-70
2021/12/28 15:21:12;;;;;;;;;;;9.30;99.90;;;;;;8410562;28;19931;-70
2021/12/28 15:25:15;;;;;;;;;;;9.30;99.90;;;;;;8410308;28;20319;-70
2021/12/28 15:29:17;;;;;;;;;;;9.20;99.90;;;;;;8400968;28;25038;-70
2021/12/28 15:33:18;;;;;;;;;;;9.20;99.90;;;;;;8394892;28;20059;-70
2021/12/28 15:37:20;;;;;;;;;;;9.10;99.90;;;;;;8374231;28;19951;-70
2021/12/28 15:41:21;;;;;;;;;;;9.00;99.90;;;;;;8368391;28;19979;-70
2021/12/28 15:45:24;;;;;;;;;;;8.90;99.90;;;;;;8386106;28;19974;-70
2021/12/28 15:49:25;;;;;;;;;;;8.80;99.90;;;;;;8388018;28;19928;-70
2021/12/28 15:53:27;;;;;;;;;;;8.80;99.90;;;;;;8359212;28;19964;-70
2021/12/28 15:57:29;;;;;;;;;;;8.80;99.90;;;;;;8383189;28;19920;-70
2021/12/28 16:01:31;;;;;;;;;;;8.70;99.90;;;;;;8350062;28;19935;-70
2021/12/28 16:05:32;;;;;;;;;;;8.70;99.90;;;;;;8364581;28;20441;-70
2021/12/28 16:09:34;;;;;;;;;;;8.70;99.90;;;;;;8362783;28;19936;-70
2021/12/28 16:13:36;;;;;;;;;;;8.70;99.90;;;;;;8360016;28;20011;-70
2021/12/28 16:17:38;;;;;;;;;;;8.70;99.90;;;;;;8361448;28;20895;-70
2021/12/28 16:21:41;;;;;;;;;;;8.70;99.90;;;;;;8360538;28;20428;-70
2021/12/28 16:25:43;;;;;;;;;;;8.60;99.90;;;;;;8338859;28;19980;-70
2021/12/28 16:29:44;;;;;;;;;;;8.60;99.90;;;;;;8360421;28;19975;-70
2021/12/28 16:33:46;;;;;;;;;;;8.60;99.90;;;;;;8363333;28;19972;-70
2021/12/28 16:37:48;;;;;;;;;;;8.60;99.90;;;;;;8344994;28;20000;-70
2021/12/28 16:41:49;;;;;;;;;;;8.60;99.90;;;;;;8357314;28;19920;-70
2021/12/28 16:45:51;;;;;;;;;;;8.60;99.90;;;;;;8365891;28;19920;-70
2021/12/28 16:49:53;;;;;;;;;;;8.60;99.90;;;;;;8363614;28;19976;-70
2021/12/28 16:53:56;;;;;;;;;;;8.50;99.90;;;;;;8356045;28;20364;-70
2021/12/28 16:57:58;;;;;;;;;;;8.50;99.90;;;;;;8355765;28;20734;-70
2021/12/28 17:02:00;;;;;;;;;;;8.50;99.90;;;;;;8358882;28;20315;-70
2021/12/28 17:06:01;;;;;;;;;;;8.50;99.90;;;;;;8358855;28;19929;-70
2021/12/28 17:10:04;;;;;;;;;;;8.50;99.90;;;;;;8365493;28;19929;-70
2021/12/28 17:14:06;;;;;;;;;;;8.50;99.90;;;;;;8369395;28;19979;-70
2021/12/28 17:18:07;;;;;;;;;;;8.50;99.90;;;;;;8356355;28;19931;-70
2021/12/28 17:22:09;;;;;;;;;;;8.50;99.90;;;;;;8379459;28;20352;-70
2021/12/28 17:26:10;;;;;;;;;;;8.50;99.90;;;;;;8375308;28;20015;-70
2021/12/28 17:30:12;;;;;;;;;;;8.50;99.90;;;;;;8372444;28;20300;-70
2021/12/28 17:34:14;;;;;;;;;;;8.50;99.90;;;;;;8392306;28;20015;-70
2021/12/28 17:38:17;;;;;;;;;;;8.50;99.90;;;;;;8380809;28;19924;-70
2021/12/28 17:42:18;;;;;;;;;;;8.50;99.90;;;;;;8364405;28;19924;-70
2021/12/28 17:46:20;;;;;;;;;;;8.50;99.90;;;;;;8400918;28;20023;-70
2021/12/28 17:50:23;;;;;;;;;;;8.50;99.90;;;;;;8385947;28;19998;-70
2021/12/28 17:54:24;;;;;;;;;;;8.60;99.90;;;;;;8384170;28;19954;-69
2021/12/28 17:58:26;;;;;;;;;;;8.60;99.90;;;;;;8356653;28;19971;-70
2021/12/28 18:02:27;;;;;;;;;;;8.60;99.90;;;;;;8353754;28;19974;-70
2021/12/28 18:06:29;;;;;;;;;;;8.60;99.90;;;;;;8383002;28;19932;-70
2021/12/28 18:10:33;;;;;;;;;;;8.60;99.90;;;;;;8370135;28;20059;-70
2021/12/28 18:14:34;;;;;;;;;;;8.70;99.90;;;;;;8373881;28;20402;-70
2021/12/28 18:18:36;;;;;;;;;;;8.80;99.90;;;;;;8393700;28;20053;-70
2021/12/28 18:22:38;;;;;;;;;;;8.80;99.90;;;;;;8395355;28;19931;-70
2021/12/28 18:26:39;;;;;;;;;;;8.80;99.90;;;;;;8394421;28;19970;-70
2021/12/28 18:30:41;;;;;;;;;;;8.90;99.90;;;;;;8393311;28;19979;-70
2021/12/28 18:34:43;;;;;;;;;;;8.90;99.90;;;;;;8392449;28;19935;-70
2021/12/28 18:38:46;;;;;;;;;;;8.90;99.90;;;;;;8387498;28;19975;-70
2021/12/28 18:42:48;;;;;;;;;;;8.90;99.90;;;;;;8395646;28;19932;-70
2021/12/28 18:46:50;;;;;;;;;;;9.00;99.90;;;;;;8391319;28;19924;-70
2021/12/28 18:50:54;;;;;;;;;;;9.00;99.90;;;;;;8387431;28;19939;-70
2021/12/28 18:54:56;;;;;;;;;;;9.00;99.90;;;;;;8353946;28;19929;-70
2021/12/28 18:58:58;;;;;;;;;;;9.00;99.90;;;;;;8353771;28;19982;-70
2021/12/28 19:03:00;;;;;;;;;;;9.10;99.90;;;;;;8355245;28;19960;-70
2021/12/28 19:07:01;;;;;;;;;;;9.10;99.90;;;;;;8372676;28;19932;-70
2021/12/28 19:11:04;;;;;;;;;;;9.10;99.90;;;;;;8351687;28;19968;-70
2021/12/28 19:15:07;;;;;;;;;;;9.10;99.90;;;;;;8353514;28;19933;-70
2021/12/28 19:19:08;;;;;;;;;;;9.20;99.90;;;;;;8350071;28;19933;-70
2021/12/28 19:23:10;;;;;;;;;;;9.20;99.90;;;;;;8349632;28;20007;-70
2021/12/28 19:27:12;;;;;;;;;;;9.20;99.90;;;;;;8349672;28;19963;-70
2021/12/28 19:31:13;;;;;;;;;;;9.20;99.90;;;;;;8350160;28;19972;-70
2021/12/28 19:35:15;;;;;;;;;;;9.20;99.90;;;;;;8347044;28;20019;-70
2021/12/28 19:39:17;;;;;;;;;;;9.30;99.90;;;;;;8351654;28;20240;-70
2021/12/28 19:43:19;;;;;;;;;;;9.30;99.90;;;;;;8354442;28;19972;-70
2021/12/28 19:47:22;;;;;;;;;;;9.30;99.90;;;;;;8351541;28;20288;-70
2021/12/28 19:51:23;;;;;;;;;;;9.30;99.90;;;;;;8344024;28;20280;-70
2021/12/28 19:55:26;;;;;;;;;;;9.20;99.90;;;;;;8350862;28;19964;-70
2021/12/28 19:59:30;;;;;;;;;;;9.20;99.90;;;;;;8351944;28;19932;-70
2021/12/28 20:03:32;;;;;;;;;;;9.20;99.90;;;;;;8348875;28;20027;-69
2021/12/28 20:07:35;;;;;;;;;;;9.20;99.90;;;;;;8352796;28;20019;-70
2021/12/28 20:11:40;;;;;;;;;;;9.20;99.90;;;;;;8348117;28;20326;-70
2021/12/28 20:15:42;;;;;;;;;;;9.20;99.90;;;;;;8350879;28;19960;-70
2021/12/28 20:19:44;;;;;;;;;;;9.20;99.90;;;;;;8353250;28;19983;-70
2021/12/28 20:23:45;;;;;;;;;;;9.20;99.90;;;;;;8352221;28;19971;-70
2021/12/28 20:27:48;;;;;;;;;;;9.20;99.90;;;;;;8343080;28;19964;-69
2021/12/28 20:31:49;;;;;;;;;;;9.20;99.90;;;;;;8349956;28;19960;-70
2021/12/28 20:35:51;;;;;;;;;;;9.20;99.90;;;;;;8348733;28;19976;-69
2021/12/28 20:39:53;;;;;;;;;;;9.20;99.90;;;;;;8350853;28;19959;-70
2021/12/28 20:43:54;;;;;;;;;;;9.20;99.90;;;;;;8353696;28;20585;-70
2021/12/28 20:47:56;;;;;;;;;;;9.20;99.90;;;;;;8344472;28;20443;-69
2021/12/28 20:51:58;;;;;;;;;;;9.20;99.90;;;;;;8319851;28;19952;-69
2021/12/28 20:56:18;;;;;;;;;;;9.20;99.90;;;;;;8318333;28;19929;-69
2021/12/28 21:00:21;;;;;;;;;;;9.20;99.90;;;;;;8300976;28;19933;-70
2021/12/28 21:04:22;;;;;;;;;;;9.20;99.90;;;;;;8309491;28;20364;-70
2021/12/28 21:08:24;;;;;;;;;;;9.20;99.90;;;;;;8303246;28;19930;-69
2021/12/28 21:12:26;;;;;;;;;;;9.20;99.90;;;;;;8307243;28;19969;-70
2021/12/28 21:16:28;;;;;;;;;;;9.20;99.90;;;;;;8304543;28;20273;-70
2021/12/28 21:20:36;;;;;;;;;;;9.20;99.90;;;;;;8301924;28;19953;-69
2021/12/28 21:24:51;;;;;;;;;;;9.20;99.90;;;;;;8305955;28;20309;-70
2021/12/28 21:28:53;;;;;;;;;;;9.20;99.90;;;;;;8304202;28;19973;-70
2021/12/28 21:32:56;;;;;;;;;;;9.20;99.90;;;;;;8300541;28;19960;-70
2021/12/28 21:36:57;;;;;;;;;;;9.20;99.90;;;;;;8300011;28;19933;-70
2021/12/28 21:41:03;;;;;;;;;;;9.20;99.90;;;;;;8302299;28;20024;-70
2021/12/28 21:45:05;;;;;;;;;;;9.20;99.90;;;;;;8311169;28;19976;-70
2021/12/28 21:49:07;;;;;;;;;;;9.20;99.90;;;;;;8319385;28;19924;-70
2021/12/28 21:53:09;;;;;;;;;;;9.20;99.90;;;;;;8379481;28;19963;-70
2021/12/28 21:57:14;;;;;;;;;;;9.20;99.90;;;;;;8380351;28;19967;-70
2021/12/28 22:01:16;;;;;;;;;;;9.20;99.90;;;;;;8376985;28;19948;-70
2021/12/28 22:05:21;;;;;;;;;;;9.20;99.90;;;;;;8383383;28;19928;-70
2021/12/28 22:09:23;;;;;;;;;;;9.20;99.90;;;;;;8387705;28;19928;-70
2021/12/28 22:13:26;;;;;;;;;;;9.20;99.90;;;;;;8360806;28;20383;-70
2021/12/28 22:17:28;;;;;;;;;;;9.20;99.90;;;;;;8378569;28;19939;-70
2021/12/28 22:21:30;;;;;;;;;;;9.20;99.90;;;;;;8383103;28;19925;-70
2021/12/28 22:25:32;;;;;;;;;;;9.20;99.90;;;;;;8383278;28;19936;-70
2021/12/28 22:29:34;;;;;;;;;;;9.20;99.90;;;;;;8357998;28;19924;-70
2021/12/28 22:33:40;;;;;;;;;;;9.20;99.90;;;;;;8379641;28;19929;-69
2021/12/28 22:37:42;;;;;;;;;;;9.20;99.90;;;;;;8381134;28;20287;-70
2021/12/28 22:41:44;;;;;;;;;;;9.20;99.90;;;;;;8368545;28;19947;-69
2021/12/28 22:45:46;;;;;;;;;;;9.20;99.90;;;;;;8389245;28;19935;-70
2021/12/28 22:49:47;;;;;;;;;;;9.20;99.90;;;;;;8369988;28;19932;-70
2021/12/28 22:53:49;;;;;;;;;;;9.20;99.90;;;;;;8375764;28;19936;-70
2021/12/28 22:57:50;;;;;;;;;;;9.20;99.90;;;;;;8383541;28;19932;-70
2021/12/28 23:01:52;;;;;;;;;;;9.20;99.90;;;;;;8389764;28;19931;-70
2021/12/28 23:05:54;;;;;;;;;;;9.20;99.90;;;;;;8393831;28;19950;-70
2021/12/28 23:09:56;;;;;;;;;;;9.20;99.90;;;;;;8388088;28;19960;-70
2021/12/28 23:13:58;;;;;;;;;;;9.20;99.90;;;;;;8387251;28;19924;-69
2021/12/28 23:17:59;;;;;;;;;;;9.20;99.90;;;;;;8366651;28;19925;-70
2021/12/28 23:22:01;;;;;;;;;;;9.20;99.90;;;;;;8364242;28;20422;-70
2021/12/28 23:26:05;;;;;;;;;;;9.20;99.90;;;;;;8368394;28;20493;-70
2021/12/28 23:30:08;;;;;;;;;;;9.20;99.90;;;;;;8387876;28;19932;-70
2021/12/28 23:34:11;;;;;;;;;;;9.20;99.90;;;;;;8389781;28;19959;-70
2021/12/28 23:38:13;;;;;;;;;;;9.20;99.90;;;;;;8383222;28;19928;-70
2021/12/28 23:42:14;;;;;;;;;;;9.20;99.90;;;;;;8382435;28;19929;-70
2021/12/28 23:46:16;;;;;;;;;;;9.20;99.90;;;;;;8371473;28;19935;-70
2021/12/28 23:50:20;;;;;;;;;;;9.20;99.90;;;;;;8386990;28;19965;-70
2021/12/28 23:54:21;;;;;;;;;;;9.20;99.90;;;;;;8369016;28;19925;-70